XQU weather

Qualicum Beach Airport
Qualicum Beach, British Columbia, Canada

Public forecast

Using degrees Celsius for public forecast. Weather courtesy of forecast.io.

Closest aviation weather report (METAR) to Qualicum Beach Airport

Closest report is Nanaimo Airport, 26.6 nm (49.3 km) SE. Retrieved 2019/10/14 14:00 UTC (49 minutes ago):

CYCD 141400Z 22003KT 160V260 20SM SCT130 SCT210 04/03 A3010 RMK AC3CI1 SLP194

Closest aviation forecast (TAF) to Qualicum Beach Airport

Closest forecast is Nanaimo Airport, 26.6 nm (49.3 km) SE. Retrieved 2019/10/14 15:42 UTC (0 seconds ago):

TAF CYCD 141440Z 1415/1503 22003KT P6SM SCT120 FM141700 10005KT P6SM FEW008 SCT140 TEMPO 1417/1420 BKN008 RMK NXT FCST BY 141800Z